This is the latest recevied weather packets stored in our database for station/object K3FEF-13. If no packets are shown the sender has not sent any weather packets the latest 10 day(s).
| Time | Temp. | Humidity | Pressure | Rain* | Wind** | Luminosity | Snow |
|---|---|---|---|---|---|---|---|
| 1777296917 | 15° C | 57% | 1027.6 hPa | 0 mm | - | - | - |
| 1777296317 | 14.44° C | 59% | 1027.3 hPa | 0 mm | - | - | - |
| 1777293917 | 12.22° C | 64% | 1026.9 hPa | 0 mm | - | - | - |
| 1777292717 | 11.67° C | 72% | 1026.8 hPa | 0 mm | - | - | - |
| 1777288517 | 5° C | 95% | 1025.8 hPa | 0 mm | - | - | - |
| 1777287917 | 4.44° C | 96% | 1025.7 hPa | 0 mm | - | - | - |
| 1777287317 | 3.33° C | 95% | 1025.6 hPa | 0 mm | - | - | - |
| 1777286717 | 2.78° C | 95% | 1025.4 hPa | 0 mm | - | - | - |
| 1777281317 | 3.89° C | 95% | 1025.3 hPa | 0 mm | - | - | - |
| 1777280117 | 3.89° C | 95% | 1025 hPa | 0 mm | - | - | - |
| 1777279517 | 3.33° C | 95% | 1025.1 hPa | 0 mm | - | - | - |
| 1777276516 | 3.33° C | 94% | 1025.1 hPa | 0 mm | - | - | - |
| 1777275317 | 2.78° C | 94% | 1024.9 hPa | 0 mm | - | - | - |
| 1777271716 | 2.78° C | 92% | 1024.6 hPa | 0 mm | - | - | - |
| 1777266916 | 4.44° C | 90% | 1024.7 hPa | 0 mm | - | - | - |
| 1777263936 | 5° C | 89% | 1024.5 hPa | 0 mm | - | - | - |
| 1777256117 | 7.78° C | 79% | 1024 hPa | 0 mm | - | - | - |
| 1777253717 | 7.78° C | 76% | 1023.9 hPa | 0 mm | - | - | - |
| 1777252517 | 8.33° C | 74% | 1023.6 hPa | 0 mm | - | - | - |
| 1777249516 | 10.56° C | 64% | 1023 hPa | 0 mm | - | - | - |
| 1777248317 | 11.67° C | 60% | 1022.8 hPa | 0 mm | - | - | - |
| 1777242916 | 13.89° C | 49% | 1022.1 hPa | 0 mm | - | - | - |
| 1777241716 | 13.89° C | 51% | 1022.2 hPa | 0 mm | - | - | - |
| 1777241116 | 14.44° C | 47% | 1022.2 hPa | 0 mm | - | - | - |
| 1777238116 | 15° C | 47% | 1022 hPa | 0 mm | - | - | - |
* Rain latest hour (hover to see other rain measurements)
** Current wind speed in m/s (hover to see current wind gust speed)